sensor_id;sensor_type;location;lat;lon;timestamp;P1;durP1;ratioP1;P2;durP2;ratioP2
17145;SDS011;8688;54.444;18.444;2022-12-18T00:01:13;46.17;;;16.43;;
17145;SDS011;8688;54.444;18.444;2022-12-18T00:03:42;37.10;;;13.27;;
17145;SDS011;8688;54.444;18.444;2022-12-18T00:06:10;43.43;;;14.13;;
17145;SDS011;8688;54.444;18.444;2022-12-18T00:08:39;38.37;;;13.40;;
17145;SDS011;8688;54.444;18.444;2022-12-18T00:11:08;33.33;;;12.70;;
17145;SDS011;8688;54.444;18.444;2022-12-18T00:13:38;35.97;;;13.13;;
17145;SDS011;8688;54.444;18.444;2022-12-18T00:16:06;40.27;;;13.73;;
17145;SDS011;8688;54.444;18.444;2022-12-18T00:18:36;38.73;;;12.87;;
17145;SDS011;8688;54.444;18.444;2022-12-18T00:21:05;36.00;;;12.97;;
17145;SDS011;8688;54.444;18.444;2022-12-18T00:23:34;39.23;;;12.57;;
17145;SDS011;8688;54.444;18.444;2022-12-18T00:26:03;35.50;;;11.17;;
17145;SDS011;8688;54.444;18.444;2022-12-18T00:28:33;35.17;;;11.50;;
17145;SDS011;8688;54.444;18.444;2022-12-18T00:31:01;28.67;;;11.47;;
17145;SDS011;8688;54.444;18.444;2022-12-18T00:33:29;40.07;;;12.07;;
17145;SDS011;8688;54.444;18.444;2022-12-18T00:36:00;39.60;;;12.00;;
17145;SDS011;8688;54.444;18.444;2022-12-18T00:38:28;38.47;;;12.73;;
17145;SDS011;8688;54.444;18.444;2022-12-18T00:40:56;44.87;;;13.90;;
17145;SDS011;8688;54.444;18.444;2022-12-18T00:43:23;39.40;;;13.23;;
17145;SDS011;8688;54.444;18.444;2022-12-18T00:45:51;36.00;;;12.10;;
17145;SDS011;8688;54.444;18.444;2022-12-18T00:48:19;41.97;;;13.23;;
17145;SDS011;8688;54.444;18.444;2022-12-18T00:50:47;38.03;;;13.13;;
17145;SDS011;8688;54.444;18.444;2022-12-18T00:53:15;46.53;;;12.63;;
17145;SDS011;8688;54.444;18.444;2022-12-18T00:55:42;44.90;;;12.87;;
17145;SDS011;8688;54.444;18.444;2022-12-18T00:58:10;34.83;;;12.70;;
17145;SDS011;8688;54.444;18.444;2022-12-18T01:00:39;40.07;;;12.33;;
17145;SDS011;8688;54.444;18.444;2022-12-18T01:03:09;37.87;;;12.80;;
17145;SDS011;8688;54.444;18.444;2022-12-18T01:05:39;40.90;;;12.30;;
17145;SDS011;8688;54.444;18.444;2022-12-18T01:08:07;36.90;;;13.10;;
17145;SDS011;8688;54.444;18.444;2022-12-18T01:10:34;43.93;;;13.43;;
17145;SDS011;8688;54.444;18.444;2022-12-18T01:13:02;40.57;;;12.53;;
17145;SDS011;8688;54.444;18.444;2022-12-18T01:15:29;41.47;;;13.20;;
17145;SDS011;8688;54.444;18.444;2022-12-18T01:17:57;41.97;;;13.60;;
17145;SDS011;8688;54.444;18.444;2022-12-18T01:20:26;39.70;;;13.53;;
17145;SDS011;8688;54.444;18.444;2022-12-18T01:22:54;36.93;;;12.60;;
17145;SDS011;8688;54.444;18.444;2022-12-18T01:25:21;43.33;;;14.13;;
17145;SDS011;8688;54.444;18.444;2022-12-18T01:27:49;40.60;;;13.97;;
17145;SDS011;8688;54.444;18.444;2022-12-18T01:30:16;38.40;;;15.27;;
17145;SDS011;8688;54.444;18.444;2022-12-18T01:32:44;48.07;;;15.00;;
17145;SDS011;8688;54.444;18.444;2022-12-18T01:35:11;43.60;;;15.63;;
17145;SDS011;8688;54.444;18.444;2022-12-18T01:37:40;43.23;;;15.80;;
17145;SDS011;8688;54.444;18.444;2022-12-18T01:40:08;47.13;;;15.57;;
17145;SDS011;8688;54.444;18.444;2022-12-18T01:42:37;41.67;;;15.53;;
17145;SDS011;8688;54.444;18.444;2022-12-18T01:45:08;41.83;;;15.27;;
17145;SDS011;8688;54.444;18.444;2022-12-18T01:47:50;44.03;;;15.67;;
17145;SDS011;8688;54.444;18.444;2022-12-18T01:50:20;55.07;;;16.50;;
17145;SDS011;8688;54.444;18.444;2022-12-18T01:52:51;59.77;;;15.77;;
17145;SDS011;8688;54.444;18.444;2022-12-18T01:55:22;48.47;;;15.23;;
17145;SDS011;8688;54.444;18.444;2022-12-18T01:57:52;53.03;;;15.97;;
17145;SDS011;8688;54.444;18.444;2022-12-18T02:00:23;52.37;;;14.87;;
17145;SDS011;8688;54.444;18.444;2022-12-18T02:02:52;45.43;;;15.47;;
17145;SDS011;8688;54.444;18.444;2022-12-18T02:05:23;51.73;;;16.47;;
17145;SDS011;8688;54.444;18.444;2022-12-18T02:08:03;43.57;;;14.47;;
17145;SDS011;8688;54.444;18.444;2022-12-18T02:10:38;52.53;;;15.67;;
17145;SDS011;8688;54.444;18.444;2022-12-18T02:13:12;43.53;;;14.50;;
17145;SDS011;8688;54.444;18.444;2022-12-18T02:15:48;42.90;;;13.73;;
17145;SDS011;8688;54.444;18.444;2022-12-18T02:18:23;41.93;;;14.90;;
17145;SDS011;8688;54.444;18.444;2022-12-18T02:20:55;37.20;;;13.97;;
17145;SDS011;8688;54.444;18.444;2022-12-18T02:23:35;41.77;;;13.93;;
17145;SDS011;8688;54.444;18.444;2022-12-18T02:26:20;42.27;;;14.17;;
17145;SDS011;8688;54.444;18.444;2022-12-18T02:28:53;39.00;;;14.20;;
17145;SDS011;8688;54.444;18.444;2022-12-18T02:31:26;42.60;;;15.33;;
17145;SDS011;8688;54.444;18.444;2022-12-18T02:33:56;46.30;;;14.90;;
17145;SDS011;8688;54.444;18.444;2022-12-18T02:36:28;47.27;;;15.17;;
17145;SDS011;8688;54.444;18.444;2022-12-18T02:38:57;46.50;;;15.83;;
17145;SDS011;8688;54.444;18.444;2022-12-18T02:41:28;39.27;;;14.50;;
17145;SDS011;8688;54.444;18.444;2022-12-18T02:43:57;41.33;;;13.73;;
17145;SDS011;8688;54.444;18.444;2022-12-18T02:46:31;43.77;;;14.33;;
17145;SDS011;8688;54.444;18.444;2022-12-18T02:49:04;48.60;;;14.77;;
17145;SDS011;8688;54.444;18.444;2022-12-18T02:51:39;43.03;;;13.47;;
17145;SDS011;8688;54.444;18.444;2022-12-18T02:54:18;41.43;;;14.73;;
17145;SDS011;8688;54.444;18.444;2022-12-18T02:56:55;47.70;;;15.87;;
17145;SDS011;8688;54.444;18.444;2022-12-18T02:59:30;47.57;;;16.97;;
17145;SDS011;8688;54.444;18.444;2022-12-18T03:02:05;49.70;;;17.07;;
17145;SDS011;8688;54.444;18.444;2022-12-18T03:04:39;49.40;;;16.50;;
17145;SDS011;8688;54.444;18.444;2022-12-18T03:07:12;46.00;;;15.77;;
17145;SDS011;8688;54.444;18.444;2022-12-18T03:09:47;42.70;;;14.00;;
17145;SDS011;8688;54.444;18.444;2022-12-18T03:12:18;36.67;;;11.93;;
17145;SDS011;8688;54.444;18.444;2022-12-18T03:14:49;44.83;;;12.87;;
17145;SDS011;8688;54.444;18.444;2022-12-18T03:17:22;40.33;;;13.17;;
17145;SDS011;8688;54.444;18.444;2022-12-18T03:19:53;39.77;;;13.70;;
17145;SDS011;8688;54.444;18.444;2022-12-18T03:22:23;41.83;;;15.13;;
17145;SDS011;8688;54.444;18.444;2022-12-18T03:24:54;39.03;;;13.17;;
17145;SDS011;8688;54.444;18.444;2022-12-18T03:27:25;39.43;;;13.87;;
17145;SDS011;8688;54.444;18.444;2022-12-18T03:29:56;36.93;;;12.83;;
17145;SDS011;8688;54.444;18.444;2022-12-18T03:32:33;30.40;;;9.50;;
17145;SDS011;8688;54.444;18.444;2022-12-18T03:35:06;34.60;;;10.20;;
17145;SDS011;8688;54.444;18.444;2022-12-18T03:37:35;33.23;;;10.27;;
17145;SDS011;8688;54.444;18.444;2022-12-18T03:40:04;24.53;;;9.37;;
17145;SDS011;8688;54.444;18.444;2022-12-18T03:42:36;27.57;;;9.97;;
17145;SDS011;8688;54.444;18.444;2022-12-18T03:45:11;27.47;;;9.73;;
17145;SDS011;8688;54.444;18.444;2022-12-18T03:47:46;32.17;;;10.33;;
17145;SDS011;8688;54.444;18.444;2022-12-18T03:50:26;27.47;;;11.10;;
17145;SDS011;8688;54.444;18.444;2022-12-18T03:53:02;29.27;;;11.03;;
17145;SDS011;8688;54.444;18.444;2022-12-18T03:55:40;27.10;;;10.00;;
17145;SDS011;8688;54.444;18.444;2022-12-18T03:58:11;32.40;;;10.03;;
17145;SDS011;8688;54.444;18.444;2022-12-18T04:00:43;25.83;;;9.73;;
17145;SDS011;8688;54.444;18.444;2022-12-18T04:03:12;22.13;;;9.53;;
17145;SDS011;8688;54.444;18.444;2022-12-18T04:05:41;25.50;;;9.07;;
17145;SDS011;8688;54.444;18.444;2022-12-18T04:08:10;29.30;;;9.20;;
17145;SDS011;8688;54.444;18.444;2022-12-18T04:10:38;28.17;;;9.77;;
17145;SDS011;8688;54.444;18.444;2022-12-18T04:13:06;23.67;;;9.20;;
17145;SDS011;8688;54.444;18.444;2022-12-18T04:15:35;21.40;;;8.67;;
17145;SDS011;8688;54.444;18.444;2022-12-18T04:18:04;24.40;;;8.63;;
17145;SDS011;8688;54.444;18.444;2022-12-18T04:20:31;23.70;;;9.50;;
17145;SDS011;8688;54.444;18.444;2022-12-18T04:22:59;24.23;;;9.27;;
17145;SDS011;8688;54.444;18.444;2022-12-18T04:25:26;20.10;;;8.60;;
17145;SDS011;8688;54.444;18.444;2022-12-18T04:27:54;21.90;;;8.90;;
17145;SDS011;8688;54.444;18.444;2022-12-18T04:30:21;24.13;;;8.80;;
17145;SDS011;8688;54.444;18.444;2022-12-18T04:32:50;24.87;;;9.17;;
17145;SDS011;8688;54.444;18.444;2022-12-18T04:35:18;20.30;;;8.60;;
17145;SDS011;8688;54.444;18.444;2022-12-18T04:37:45;20.47;;;9.47;;
17145;SDS011;8688;54.444;18.444;2022-12-18T04:40:13;22.10;;;8.73;;
17145;SDS011;8688;54.444;18.444;2022-12-18T04:42:40;20.90;;;9.03;;
17145;SDS011;8688;54.444;18.444;2022-12-18T04:45:08;22.60;;;8.60;;
17145;SDS011;8688;54.444;18.444;2022-12-18T04:47:36;23.47;;;8.83;;
17145;SDS011;8688;54.444;18.444;2022-12-18T04:50:05;21.40;;;8.80;;
17145;SDS011;8688;54.444;18.444;2022-12-18T04:52:33;21.97;;;8.80;;
17145;SDS011;8688;54.444;18.444;2022-12-18T04:55:01;24.00;;;9.20;;
17145;SDS011;8688;54.444;18.444;2022-12-18T04:57:29;21.70;;;9.13;;
17145;SDS011;8688;54.444;18.444;2022-12-18T04:59:56;21.33;;;8.23;;
17145;SDS011;8688;54.444;18.444;2022-12-18T05:02:24;23.70;;;8.23;;
17145;SDS011;8688;54.444;18.444;2022-12-18T05:04:51;21.43;;;8.43;;
17145;SDS011;8688;54.444;18.444;2022-12-18T05:07:20;28.90;;;11.30;;
17145;SDS011;8688;54.444;18.444;2022-12-18T05:09:48;32.90;;;11.70;;
17145;SDS011;8688;54.444;18.444;2022-12-18T05:12:15;24.50;;;9.63;;
17145;SDS011;8688;54.444;18.444;2022-12-18T05:14:43;27.47;;;10.40;;
17145;SDS011;8688;54.444;18.444;2022-12-18T05:17:10;25.03;;;8.60;;
17145;SDS011;8688;54.444;18.444;2022-12-18T05:19:38;23.73;;;8.60;;
17145;SDS011;8688;54.444;18.444;2022-12-18T05:22:06;22.20;;;9.40;;
17145;SDS011;8688;54.444;18.444;2022-12-18T05:24:35;26.90;;;8.60;;
17145;SDS011;8688;54.444;18.444;2022-12-18T05:27:02;23.77;;;9.00;;
17145;SDS011;8688;54.444;18.444;2022-12-18T05:29:30;18.93;;;7.73;;
17145;SDS011;8688;54.444;18.444;2022-12-18T05:31:57;18.97;;;7.67;;
17145;SDS011;8688;54.444;18.444;2022-12-18T05:34:25;20.00;;;8.27;;
17145;SDS011;8688;54.444;18.444;2022-12-18T05:36:52;24.87;;;8.33;;
17145;SDS011;8688;54.444;18.444;2022-12-18T05:39:20;21.53;;;8.43;;
17145;SDS011;8688;54.444;18.444;2022-12-18T05:41:49;23.37;;;7.77;;
17145;SDS011;8688;54.444;18.444;2022-12-18T05:44:16;20.93;;;8.20;;
17145;SDS011;8688;54.444;18.444;2022-12-18T05:46:44;18.90;;;8.17;;
17145;SDS011;8688;54.444;18.444;2022-12-18T05:49:11;16.13;;;7.43;;
17145;SDS011;8688;54.444;18.444;2022-12-18T05:51:38;18.00;;;7.70;;
17145;SDS011;8688;54.444;18.444;2022-12-18T05:54:06;18.80;;;8.40;;
17145;SDS011;8688;54.444;18.444;2022-12-18T05:56:33;20.13;;;8.27;;
17145;SDS011;8688;54.444;18.444;2022-12-18T05:59:02;17.80;;;7.67;;
17145;SDS011;8688;54.444;18.444;2022-12-18T06:01:30;18.90;;;7.73;;
17145;SDS011;8688;54.444;18.444;2022-12-18T06:03:57;18.77;;;8.13;;
17145;SDS011;8688;54.444;18.444;2022-12-18T06:06:25;21.43;;;8.07;;
17145;SDS011;8688;54.444;18.444;2022-12-18T06:08:54;18.70;;;7.83;;
17145;SDS011;8688;54.444;18.444;2022-12-18T06:11:22;16.87;;;8.17;;
17145;SDS011;8688;54.444;18.444;2022-12-18T06:13:51;16.53;;;7.80;;
17145;SDS011;8688;54.444;18.444;2022-12-18T06:16:20;17.17;;;7.53;;
17145;SDS011;8688;54.444;18.444;2022-12-18T06:18:48;18.77;;;8.23;;
17145;SDS011;8688;54.444;18.444;2022-12-18T06:21:15;20.53;;;7.57;;
17145;SDS011;8688;54.444;18.444;2022-12-18T06:23:43;18.37;;;7.03;;
17145;SDS011;8688;54.444;18.444;2022-12-18T06:26:11;21.37;;;9.27;;
17145;SDS011;8688;54.444;18.444;2022-12-18T06:28:39;25.33;;;9.90;;
17145;SDS011;8688;54.444;18.444;2022-12-18T06:31:07;23.90;;;10.00;;
17145;SDS011;8688;54.444;18.444;2022-12-18T06:33:37;24.57;;;9.23;;
17145;SDS011;8688;54.444;18.444;2022-12-18T06:36:05;22.63;;;7.97;;
17145;SDS011;8688;54.444;18.444;2022-12-18T06:38:35;17.70;;;7.80;;
17145;SDS011;8688;54.444;18.444;2022-12-18T06:41:06;16.40;;;7.03;;
17145;SDS011;8688;54.444;18.444;2022-12-18T06:43:34;19.50;;;7.97;;
17145;SDS011;8688;54.444;18.444;2022-12-18T06:46:02;19.47;;;7.47;;
17145;SDS011;8688;54.444;18.444;2022-12-18T06:48:30;16.90;;;6.87;;
17145;SDS011;8688;54.444;18.444;2022-12-18T06:50:59;21.37;;;7.90;;
17145;SDS011;8688;54.444;18.444;2022-12-18T06:53:27;20.27;;;7.50;;
17145;SDS011;8688;54.444;18.444;2022-12-18T06:55:59;16.73;;;7.50;;
17145;SDS011;8688;54.444;18.444;2022-12-18T06:58:27;15.93;;;6.90;;
17145;SDS011;8688;54.444;18.444;2022-12-18T07:00:59;19.93;;;7.53;;
17145;SDS011;8688;54.444;18.444;2022-12-18T07:03:27;20.00;;;6.93;;
17145;SDS011;8688;54.444;18.444;2022-12-18T07:05:55;17.70;;;7.43;;
17145;SDS011;8688;54.444;18.444;2022-12-18T07:08:24;21.43;;;8.00;;
17145;SDS011;8688;54.444;18.444;2022-12-18T07:10:51;23.47;;;8.63;;
17145;SDS011;8688;54.444;18.444;2022-12-18T07:13:19;29.13;;;10.00;;
17145;SDS011;8688;54.444;18.444;2022-12-18T07:15:46;28.83;;;9.97;;
17145;SDS011;8688;54.444;18.444;2022-12-18T07:18:14;32.37;;;10.60;;
17145;SDS011;8688;54.444;18.444;2022-12-18T07:20:41;36.37;;;11.33;;
17145;SDS011;8688;54.444;18.444;2022-12-18T07:23:09;26.70;;;9.97;;
17145;SDS011;8688;54.444;18.444;2022-12-18T07:25:38;26.23;;;8.87;;
17145;SDS011;8688;54.444;18.444;2022-12-18T07:28:05;26.43;;;9.73;;
17145;SDS011;8688;54.444;18.444;2022-12-18T07:30:33;25.67;;;9.27;;
17145;SDS011;8688;54.444;18.444;2022-12-18T07:33:03;27.73;;;10.13;;
17145;SDS011;8688;54.444;18.444;2022-12-18T07:35:30;29.87;;;10.13;;
17145;SDS011;8688;54.444;18.444;2022-12-18T07:37:59;28.23;;;10.50;;
17145;SDS011;8688;54.444;18.444;2022-12-18T07:40:26;27.30;;;9.30;;
17145;SDS011;8688;54.444;18.444;2022-12-18T07:42:55;24.73;;;9.40;;
17145;SDS011;8688;54.444;18.444;2022-12-18T07:45:23;35.23;;;14.53;;
17145;SDS011;8688;54.444;18.444;2022-12-18T07:47:50;48.37;;;17.50;;
17145;SDS011;8688;54.444;18.444;2022-12-18T07:50:17;61.13;;;21.03;;
17145;SDS011;8688;54.444;18.444;2022-12-18T07:52:45;55.43;;;21.07;;
17145;SDS011;8688;54.444;18.444;2022-12-18T07:55:13;53.97;;;19.43;;
17145;SDS011;8688;54.444;18.444;2022-12-18T07:57:40;29.77;;;12.00;;
17145;SDS011;8688;54.444;18.444;2022-12-18T08:00:10;33.73;;;12.50;;
17145;SDS011;8688;54.444;18.444;2022-12-18T08:02:38;35.23;;;14.10;;
17145;SDS011;8688;54.444;18.444;2022-12-18T08:05:06;47.57;;;15.13;;
17145;SDS011;8688;54.444;18.444;2022-12-18T08:07:34;42.63;;;15.63;;
17145;SDS011;8688;54.444;18.444;2022-12-18T08:10:01;37.87;;;14.63;;
17145;SDS011;8688;54.444;18.444;2022-12-18T08:12:29;32.97;;;12.80;;
17145;SDS011;8688;54.444;18.444;2022-12-18T08:14:56;37.87;;;14.60;;
17145;SDS011;8688;54.444;18.444;2022-12-18T08:17:25;34.40;;;14.07;;
17145;SDS011;8688;54.444;18.444;2022-12-18T08:19:53;33.67;;;13.27;;
17145;SDS011;8688;54.444;18.444;2022-12-18T08:22:20;31.10;;;13.07;;
17145;SDS011;8688;54.444;18.444;2022-12-18T08:24:47;32.97;;;13.37;;
17145;SDS011;8688;54.444;18.444;2022-12-18T08:27:15;31.57;;;13.43;;
17145;SDS011;8688;54.444;18.444;2022-12-18T08:29:42;39.47;;;12.97;;
17145;SDS011;8688;54.444;18.444;2022-12-18T08:32:10;32.73;;;13.20;;
17145;SDS011;8688;54.444;18.444;2022-12-18T08:34:39;36.90;;;13.70;;
17145;SDS011;8688;54.444;18.444;2022-12-18T08:37:06;32.37;;;13.83;;
17145;SDS011;8688;54.444;18.444;2022-12-18T08:39:34;36.43;;;13.70;;
17145;SDS011;8688;54.444;18.444;2022-12-18T08:42:01;35.03;;;14.63;;
17145;SDS011;8688;54.444;18.444;2022-12-18T08:44:46;35.53;;;13.00;;
17145;SDS011;8688;54.444;18.444;2022-12-18T08:47:13;35.73;;;13.27;;
17145;SDS011;8688;54.444;18.444;2022-12-18T08:49:42;40.27;;;15.00;;
17145;SDS011;8688;54.444;18.444;2022-12-18T08:52:09;55.77;;;16.47;;
17145;SDS011;8688;54.444;18.444;2022-12-18T08:54:37;52.33;;;20.83;;
17145;SDS011;8688;54.444;18.444;2022-12-18T08:57:04;40.80;;;15.83;;
17145;SDS011;8688;54.444;18.444;2022-12-18T08:59:32;45.63;;;16.90;;
17145;SDS011;8688;54.444;18.444;2022-12-18T09:01:59;42.57;;;15.37;;
17145;SDS011;8688;54.444;18.444;2022-12-18T09:04:26;34.40;;;14.37;;
17145;SDS011;8688;54.444;18.444;2022-12-18T09:06:55;34.93;;;12.63;;
17145;SDS011;8688;54.444;18.444;2022-12-18T09:09:23;40.67;;;16.00;;
17145;SDS011;8688;54.444;18.444;2022-12-18T09:11:50;36.60;;;16.37;;
17145;SDS011;8688;54.444;18.444;2022-12-18T09:14:18;41.73;;;15.57;;
17145;SDS011;8688;54.444;18.444;2022-12-18T09:16:45;41.33;;;15.70;;
17145;SDS011;8688;54.444;18.444;2022-12-18T09:19:12;36.03;;;13.47;;
17145;SDS011;8688;54.444;18.444;2022-12-18T09:21:40;36.30;;;14.03;;
17145;SDS011;8688;54.444;18.444;2022-12-18T09:24:09;37.27;;;15.37;;
17145;SDS011;8688;54.444;18.444;2022-12-18T09:26:39;38.97;;;13.93;;
17145;SDS011;8688;54.444;18.444;2022-12-18T09:29:07;38.53;;;14.37;;
17145;SDS011;8688;54.444;18.444;2022-12-18T09:31:35;45.30;;;15.00;;
17145;SDS011;8688;54.444;18.444;2022-12-18T09:34:02;42.67;;;14.23;;
17145;SDS011;8688;54.444;18.444;2022-12-18T09:36:33;36.13;;;13.43;;
17145;SDS011;8688;54.444;18.444;2022-12-18T09:39:01;34.47;;;11.97;;
17145;SDS011;8688;54.444;18.444;2022-12-18T09:41:36;32.17;;;12.10;;
17145;SDS011;8688;54.444;18.444;2022-12-18T09:44:10;32.03;;;11.57;;
17145;SDS011;8688;54.444;18.444;2022-12-18T09:46:44;25.90;;;10.87;;
17145;SDS011;8688;54.444;18.444;2022-12-18T09:49:17;25.53;;;11.00;;
17145;SDS011;8688;54.444;18.444;2022-12-18T09:51:49;27.17;;;11.60;;
17145;SDS011;8688;54.444;18.444;2022-12-18T09:54:21;19.53;;;8.70;;
17145;SDS011;8688;54.444;18.444;2022-12-18T09:56:52;27.80;;;11.43;;
17145;SDS011;8688;54.444;18.444;2022-12-18T09:59:23;30.57;;;11.23;;
17145;SDS011;8688;54.444;18.444;2022-12-18T10:01:53;25.57;;;10.67;;
17145;SDS011;8688;54.444;18.444;2022-12-18T10:04:20;28.20;;;11.27;;
17145;SDS011;8688;54.444;18.444;2022-12-18T10:06:49;27.03;;;9.73;;
17145;SDS011;8688;54.444;18.444;2022-12-18T10:09:24;28.00;;;11.83;;
17145;SDS011;8688;54.444;18.444;2022-12-18T10:12:04;28.97;;;10.60;;
17145;SDS011;8688;54.444;18.444;2022-12-18T10:14:39;19.17;;;7.90;;
17145;SDS011;8688;54.444;18.444;2022-12-18T10:17:17;28.57;;;11.50;;
17145;SDS011;8688;54.444;18.444;2022-12-18T10:19:52;25.63;;;11.23;;
17145;SDS011;8688;54.444;18.444;2022-12-18T10:22:28;21.37;;;9.23;;
17145;SDS011;8688;54.444;18.444;2022-12-18T10:25:13;27.03;;;10.13;;
17145;SDS011;8688;54.444;18.444;2022-12-18T10:27:48;20.87;;;8.17;;
17145;SDS011;8688;54.444;18.444;2022-12-18T10:30:21;29.40;;;10.50;;
17145;SDS011;8688;54.444;18.444;2022-12-18T10:32:50;33.20;;;10.73;;
17145;SDS011;8688;54.444;18.444;2022-12-18T10:35:20;30.73;;;10.50;;
17145;SDS011;8688;54.444;18.444;2022-12-18T10:38:06;25.97;;;10.50;;
17145;SDS011;8688;54.444;18.444;2022-12-18T10:40:51;26.23;;;10.53;;
17145;SDS011;8688;54.444;18.444;2022-12-18T10:43:22;27.07;;;10.57;;
17145;SDS011;8688;54.444;18.444;2022-12-18T10:45:58;30.77;;;12.37;;
17145;SDS011;8688;54.444;18.444;2022-12-18T10:48:28;25.57;;;9.70;;
17145;SDS011;8688;54.444;18.444;2022-12-18T10:50:57;30.10;;;11.73;;
17145;SDS011;8688;54.444;18.444;2022-12-18T10:53:26;26.00;;;11.00;;
17145;SDS011;8688;54.444;18.444;2022-12-18T10:55:56;30.53;;;11.17;;
17145;SDS011;8688;54.444;18.444;2022-12-18T10:58:31;24.20;;;9.83;;
17145;SDS011;8688;54.444;18.444;2022-12-18T11:01:08;27.30;;;10.17;;
17145;SDS011;8688;54.444;18.444;2022-12-18T11:03:38;28.50;;;10.73;;
17145;SDS011;8688;54.444;18.444;2022-12-18T11:06:08;24.60;;;10.00;;
17145;SDS011;8688;54.444;18.444;2022-12-18T11:08:37;23.40;;;9.63;;
17145;SDS011;8688;54.444;18.444;2022-12-18T11:11:07;28.13;;;10.17;;
17145;SDS011;8688;54.444;18.444;2022-12-18T11:13:51;26.43;;;8.93;;
17145;SDS011;8688;54.444;18.444;2022-12-18T11:16:28;25.37;;;8.97;;
17145;SDS011;8688;54.444;18.444;2022-12-18T11:19:08;23.63;;;8.67;;
17145;SDS011;8688;54.444;18.444;2022-12-18T11:21:43;22.63;;;8.60;;
17145;SDS011;8688;54.444;18.444;2022-12-18T11:24:15;21.73;;;7.63;;
17145;SDS011;8688;54.444;18.444;2022-12-18T11:26:47;21.47;;;8.80;;
17145;SDS011;8688;54.444;18.444;2022-12-18T11:29:17;21.40;;;8.47;;
17145;SDS011;8688;54.444;18.444;2022-12-18T11:31:50;23.47;;;7.97;;
17145;SDS011;8688;54.444;18.444;2022-12-18T11:34:19;22.67;;;8.57;;
17145;SDS011;8688;54.444;18.444;2022-12-18T11:36:52;18.37;;;7.30;;
17145;SDS011;8688;54.444;18.444;2022-12-18T11:39:24;19.83;;;7.63;;
17145;SDS011;8688;54.444;18.444;2022-12-18T11:42:02;17.67;;;7.17;;
17145;SDS011;8688;54.444;18.444;2022-12-18T11:44:41;15.47;;;6.33;;
17145;SDS011;8688;54.444;18.444;2022-12-18T11:47:15;20.23;;;7.37;;
17145;SDS011;8688;54.444;18.444;2022-12-18T11:49:51;19.70;;;6.87;;
17145;SDS011;8688;54.444;18.444;2022-12-18T11:52:23;17.00;;;7.50;;
17145;SDS011;8688;54.444;18.444;2022-12-18T11:54:53;17.33;;;6.07;;
17145;SDS011;8688;54.444;18.444;2022-12-18T11:57:28;15.73;;;6.43;;
17145;SDS011;8688;54.444;18.444;2022-12-18T12:00:09;15.40;;;5.97;;
17145;SDS011;8688;54.444;18.444;2022-12-18T12:02:46;15.20;;;5.80;;
17145;SDS011;8688;54.444;18.444;2022-12-18T12:05:41;18.03;;;7.07;;
17145;SDS011;8688;54.444;18.444;2022-12-18T12:08:20;10.50;;;4.43;;
17145;SDS011;8688;54.444;18.444;2022-12-18T12:10:56;15.93;;;5.80;;
17145;SDS011;8688;54.444;18.444;2022-12-18T12:13:36;12.80;;;6.00;;
17145;SDS011;8688;54.444;18.444;2022-12-18T12:16:15;11.53;;;5.20;;
17145;SDS011;8688;54.444;18.444;2022-12-18T12:19:00;13.17;;;5.73;;
17145;SDS011;8688;54.444;18.444;2022-12-18T12:21:35;16.20;;;6.20;;
17145;SDS011;8688;54.444;18.444;2022-12-18T12:24:12;16.07;;;5.57;;
17145;SDS011;8688;54.444;18.444;2022-12-18T12:26:55;14.67;;;6.43;;
17145;SDS011;8688;54.444;18.444;2022-12-18T12:29:35;12.40;;;5.60;;
17145;SDS011;8688;54.444;18.444;2022-12-18T12:32:16;19.83;;;7.20;;
17145;SDS011;8688;54.444;18.444;2022-12-18T12:34:57;16.87;;;6.13;;
17145;SDS011;8688;54.444;18.444;2022-12-18T12:37:37;14.63;;;6.40;;
17145;SDS011;8688;54.444;18.444;2022-12-18T12:40:11;18.50;;;7.67;;
17145;SDS011;8688;54.444;18.444;2022-12-18T12:42:44;11.97;;;5.30;;
17145;SDS011;8688;54.444;18.444;2022-12-18T12:45:34;12.67;;;4.93;;
17145;SDS011;8688;54.444;18.444;2022-12-18T12:48:07;10.90;;;4.10;;
17145;SDS011;8688;54.444;18.444;2022-12-18T12:50:42;11.67;;;4.50;;
17145;SDS011;8688;54.444;18.444;2022-12-18T12:53:13;13.63;;;4.67;;
17145;SDS011;8688;54.444;18.444;2022-12-18T12:55:50;12.07;;;4.77;;
17145;SDS011;8688;54.444;18.444;2022-12-18T12:58:21;12.30;;;4.90;;
17145;SDS011;8688;54.444;18.444;2022-12-18T13:01:00;10.93;;;4.00;;
17145;SDS011;8688;54.444;18.444;2022-12-18T13:03:42;16.20;;;4.97;;
17145;SDS011;8688;54.444;18.444;2022-12-18T13:06:19;9.93;;;3.40;;
17145;SDS011;8688;54.444;18.444;2022-12-18T13:08:56;12.93;;;4.90;;
17145;SDS011;8688;54.444;18.444;2022-12-18T13:11:29;13.30;;;4.90;;
17145;SDS011;8688;54.444;18.444;2022-12-18T13:14:26;11.53;;;4.70;;
17145;SDS011;8688;54.444;18.444;2022-12-18T13:22:43;12.53;;;5.50;;
17145;SDS011;8688;54.444;18.444;2022-12-18T13:25:33;13.80;;;5.37;;
17145;SDS011;8688;54.444;18.444;2022-12-18T13:28:03;10.40;;;4.07;;
17145;SDS011;8688;54.444;18.444;2022-12-18T13:30:46;13.00;;;4.27;;
17145;SDS011;8688;54.444;18.444;2022-12-18T13:36:27;13.57;;;5.10;;
17145;SDS011;8688;54.444;18.444;2022-12-18T13:41:49;13.17;;;5.13;;
17145;SDS011;8688;54.444;18.444;2022-12-18T13:44:31;13.87;;;5.37;;
17145;SDS011;8688;54.444;18.444;2022-12-18T13:47:00;15.60;;;5.43;;
17145;SDS011;8688;54.444;18.444;2022-12-18T13:49:31;13.20;;;5.70;;
17145;SDS011;8688;54.444;18.444;2022-12-18T13:52:15;12.80;;;5.43;;
17145;SDS011;8688;54.444;18.444;2022-12-18T13:54:45;15.63;;;6.07;;
17145;SDS011;8688;54.444;18.444;2022-12-18T13:57:26;60.33;;;21.30;;
17145;SDS011;8688;54.444;18.444;2022-12-18T13:59:55;99.17;;;36.47;;
17145;SDS011;8688;54.444;18.444;2022-12-18T14:02:23;32.10;;;13.70;;
17145;SDS011;8688;54.444;18.444;2022-12-18T14:04:52;38.43;;;12.67;;
17145;SDS011;8688;54.444;18.444;2022-12-18T14:07:23;31.53;;;13.60;;
17145;SDS011;8688;54.444;18.444;2022-12-18T14:09:52;23.13;;;9.00;;
17145;SDS011;8688;54.444;18.444;2022-12-18T14:12:22;20.90;;;11.30;;
17145;SDS011;8688;54.444;18.444;2022-12-18T14:15:13;13.70;;;5.63;;
17145;SDS011;8688;54.444;18.444;2022-12-18T14:17:51;7.53;;;4.00;;
17145;SDS011;8688;54.444;18.444;2022-12-18T14:20:21;12.03;;;5.30;;
17145;SDS011;8688;54.444;18.444;2022-12-18T14:22:52;13.50;;;5.20;;
17145;SDS011;8688;54.444;18.444;2022-12-18T14:25:20;15.37;;;4.90;;
17145;SDS011;8688;54.444;18.444;2022-12-18T14:27:49;12.90;;;5.30;;
17145;SDS011;8688;54.444;18.444;2022-12-18T14:30:28;13.23;;;4.77;;
17145;SDS011;8688;54.444;18.444;2022-12-18T14:33:03;13.73;;;4.53;;
17145;SDS011;8688;54.444;18.444;2022-12-18T14:35:35;13.40;;;5.37;;
17145;SDS011;8688;54.444;18.444;2022-12-18T14:38:15;11.63;;;5.17;;
17145;SDS011;8688;54.444;18.444;2022-12-18T14:40:51;13.50;;;4.83;;
17145;SDS011;8688;54.444;18.444;2022-12-18T14:43:20;18.90;;;6.00;;
17145;SDS011;8688;54.444;18.444;2022-12-18T14:45:48;22.73;;;10.07;;
17145;SDS011;8688;54.444;18.444;2022-12-18T14:48:17;18.33;;;7.67;;
17145;SDS011;8688;54.444;18.444;2022-12-18T14:50:54;15.10;;;6.67;;
17145;SDS011;8688;54.444;18.444;2022-12-18T14:53:29;17.23;;;6.63;;
17145;SDS011;8688;54.444;18.444;2022-12-18T14:56:03;20.30;;;7.20;;
17145;SDS011;8688;54.444;18.444;2022-12-18T14:58:52;18.77;;;8.67;;
17145;SDS011;8688;54.444;18.444;2022-12-18T15:01:22;18.90;;;9.00;;
17145;SDS011;8688;54.444;18.444;2022-12-18T15:03:53;18.60;;;8.10;;